createdAt,value
2023-05-23T00:01:17.238Z,100.00
2023-05-23T00:03:45.764Z,100.00
2023-05-23T00:06:14.841Z,100.00
2023-05-23T00:08:43.045Z,100.00
2023-05-23T00:11:13.530Z,100.00
2023-05-23T00:13:41.733Z,100.00
2023-05-23T00:16:10.870Z,100.00
2023-05-23T00:18:40.333Z,100.00
2023-05-23T00:21:09.936Z,100.00
2023-05-23T00:23:38.567Z,100.00
2023-05-23T00:26:06.882Z,100.00
2023-05-23T00:28:36.484Z,100.00
2023-05-23T00:31:04.960Z,100.00
2023-05-23T00:33:34.527Z,100.00
2023-05-23T00:36:03.688Z,100.00
2023-05-23T00:38:31.970Z,100.00
2023-05-23T00:41:00.360Z,100.00
2023-05-23T00:43:29.587Z,100.00
2023-05-23T00:45:59.438Z,100.00
2023-05-23T00:48:28.005Z,100.00
2023-05-23T00:50:57.087Z,100.00
2023-05-23T00:53:25.846Z,100.00
2023-05-23T00:55:54.325Z,100.00
2023-05-23T00:58:22.714Z,100.00
2023-05-23T01:00:54.514Z,100.00
2023-05-23T01:03:28.765Z,100.00
2023-05-23T01:05:57.513Z,100.00
2023-05-23T01:08:25.563Z,100.00
2023-05-23T01:10:54.045Z,100.00
2023-05-23T01:13:34.186Z,100.00
2023-05-23T01:16:08.805Z,100.00
2023-05-23T01:18:42.320Z,100.00
2023-05-23T01:21:14.206Z,100.00
2023-05-23T01:24:17.824Z,100.00
2023-05-23T01:27:03.231Z,100.00
2023-05-23T01:29:35.746Z,100.00
2023-05-23T01:32:06.794Z,100.00
2023-05-23T01:34:37.934Z,100.00
2023-05-23T01:37:10.634Z,100.00
2023-05-23T01:39:40.163Z,100.00
2023-05-23T01:42:09.862Z,100.00
2023-05-23T01:44:40.857Z,100.00
2023-05-23T01:47:10.912Z,100.00
2023-05-23T01:49:40.140Z,100.00
2023-05-23T01:52:10.677Z,100.00
2023-05-23T01:54:43.546Z,100.00
2023-05-23T01:57:12.435Z,100.00
2023-05-23T01:59:42.164Z,100.00
2023-05-23T02:02:10.486Z,100.00
2023-05-23T02:04:38.835Z,100.00
2023-05-23T02:07:07.543Z,100.00
2023-05-23T02:09:35.747Z,100.00
2023-05-23T02:12:04.104Z,100.00
2023-05-23T02:14:32.238Z,100.00
2023-05-23T02:17:01.765Z,100.00
2023-05-23T02:19:30.023Z,100.00
2023-05-23T02:21:58.261Z,100.00
2023-05-23T02:24:26.425Z,100.00
2023-05-23T02:26:54.651Z,100.00
2023-05-23T02:29:22.992Z,100.00
2023-05-23T02:31:51.308Z,100.00
2023-05-23T02:34:20.918Z,100.00
2023-05-23T02:36:49.038Z,100.00
2023-05-23T02:39:17.130Z,100.00
2023-05-23T02:41:47.135Z,100.00
2023-05-23T02:44:15.348Z,100.00
2023-05-23T02:46:43.584Z,100.00
2023-05-23T02:49:11.750Z,100.00
2023-05-23T02:51:41.258Z,100.00
2023-05-23T02:54:09.558Z,100.00
2023-05-23T02:56:39.232Z,100.00
2023-05-23T02:59:07.621Z,100.00
2023-05-23T03:01:35.831Z,100.00
2023-05-23T03:04:04.527Z,100.00
2023-05-23T03:06:34.298Z,100.00
2023-05-23T03:09:04.724Z,100.00
2023-05-23T03:11:33.036Z,100.00
2023-05-23T03:14:01.260Z,100.00
2023-05-23T03:16:29.602Z,100.00
2023-05-23T03:18:57.882Z,100.00
2023-05-23T03:21:26.496Z,100.00
2023-05-23T03:23:54.842Z,100.00
2023-05-23T03:26:25.607Z,100.00
2023-05-23T03:28:53.846Z,100.00
2023-05-23T03:31:22.237Z,100.00
2023-05-23T03:33:50.533Z,100.00
2023-05-23T03:36:18.816Z,100.00
2023-05-23T03:38:47.143Z,100.00
2023-05-23T03:41:15.976Z,100.00
2023-05-23T03:43:46.951Z,100.00
2023-05-23T03:46:15.270Z,100.00
2023-05-23T03:48:43.682Z,100.00
2023-05-23T03:51:13.619Z,100.00
2023-05-23T03:53:42.752Z,100.00
2023-05-23T03:56:11.437Z,100.00
2023-05-23T03:58:39.736Z,100.00
2023-05-23T04:01:14.753Z,100.00
2023-05-23T04:03:43.251Z,100.00
2023-05-23T04:06:14.133Z,100.00
2023-05-23T04:08:45.448Z,100.00
2023-05-23T04:11:13.726Z,100.00
2023-05-23T04:13:43.034Z,100.00
2023-05-23T04:16:12.560Z,100.00
2023-05-23T04:18:43.708Z,100.00
2023-05-23T04:21:12.084Z,100.00
2023-05-23T04:23:48.291Z,100.00
2023-05-23T04:26:16.451Z,100.00
2023-05-23T04:28:50.223Z,100.00
2023-05-23T04:31:19.244Z,100.00
2023-05-23T04:33:49.604Z,100.00
2023-05-23T04:36:20.360Z,100.00
2023-05-23T04:38:53.940Z,100.00
2023-05-23T04:41:23.734Z,100.00
2023-05-23T04:44:24.462Z,100.00
2023-05-23T04:47:05.376Z,100.00
2023-05-23T04:49:49.690Z,100.00
2023-05-23T04:52:19.201Z,100.00
2023-05-23T04:54:48.947Z,100.00
2023-05-23T04:57:17.349Z,100.00
2023-05-23T04:59:46.631Z,100.00
2023-05-23T05:02:15.053Z,100.00
2023-05-23T05:04:43.314Z,100.00
2023-05-23T05:07:13.344Z,100.00
2023-05-23T05:09:41.678Z,100.00
2023-05-23T05:12:12.283Z,100.00
2023-05-23T05:14:41.234Z,100.00
2023-05-23T05:17:09.822Z,100.00
2023-05-23T05:19:51.569Z,100.00
2023-05-23T05:22:21.127Z,100.00
2023-05-23T05:24:49.924Z,100.00
2023-05-23T05:27:18.087Z,100.00
2023-05-23T05:29:46.342Z,100.00
2023-05-23T05:32:14.551Z,100.00
2023-05-23T05:34:43.434Z,100.00
2023-05-23T05:37:14.280Z,100.00
2023-05-23T05:39:44.578Z,100.00
2023-05-23T05:42:13.532Z,100.00
2023-05-23T05:44:41.777Z,100.00
2023-05-23T05:47:09.981Z,100.00
2023-05-23T05:49:38.146Z,100.00
2023-05-23T05:52:07.060Z,100.00
2023-05-23T05:54:36.210Z,100.00
2023-05-23T05:57:06.225Z,100.00
2023-05-23T05:59:34.494Z,100.00
2023-05-23T06:02:02.613Z,100.00
2023-05-23T06:04:30.773Z,100.00
2023-05-23T06:06:59.986Z,100.00
2023-05-23T06:09:28.109Z,100.00
2023-05-23T06:11:56.272Z,100.00
2023-05-23T06:14:26.202Z,100.00
2023-05-23T06:16:54.928Z,100.00
2023-05-23T06:19:23.181Z,100.00
2023-05-23T06:21:51.905Z,100.00
2023-05-23T06:24:21.541Z,100.00
2023-05-23T06:26:49.747Z,98.31
2023-05-23T06:29:18.019Z,98.45
2023-05-23T06:31:47.639Z,98.43
2023-05-23T06:34:15.892Z,98.41
2023-05-23T06:36:44.128Z,99.73
2023-05-23T06:39:12.309Z,95.38
2023-05-23T06:41:41.049Z,93.95
2023-05-23T06:44:09.092Z,94.95
2023-05-23T06:46:41.990Z,93.52
2023-05-23T06:49:15.244Z,93.82
2023-05-23T06:51:45.863Z,92.02
2023-05-23T06:54:14.097Z,93.91
2023-05-23T06:56:42.590Z,89.23
2023-05-23T06:59:10.891Z,85.35
2023-05-23T07:01:40.074Z,87.82
2023-05-23T07:04:08.786Z,84.11
2023-05-23T07:06:39.988Z,80.81
2023-05-23T07:09:09.414Z,81.95
2023-05-23T07:11:39.615Z,80.80
2023-05-23T07:14:08.612Z,81.30
2023-05-23T07:16:45.783Z,77.63
2023-05-23T07:19:14.496Z,75.40
2023-05-23T07:21:50.205Z,78.16
2023-05-23T07:24:19.934Z,71.66
2023-05-23T07:26:48.928Z,72.78
2023-05-23T07:29:17.262Z,72.94
2023-05-23T07:31:47.822Z,69.94
2023-05-23T07:34:16.170Z,73.67
2023-05-23T07:36:58.269Z,69.46
2023-05-23T07:39:28.617Z,66.63
2023-05-23T07:41:59.313Z,66.83
2023-05-23T07:44:27.662Z,67.25
2023-05-23T07:46:56.197Z,69.09
2023-05-23T07:49:25.948Z,68.39
2023-05-23T07:51:55.294Z,68.06
2023-05-23T07:54:24.895Z,67.38
2023-05-23T07:56:58.444Z,66.36
2023-05-23T07:59:27.440Z,70.38
2023-05-23T08:01:56.356Z,68.48
2023-05-23T08:04:26.963Z,66.39
2023-05-23T08:09:32.220Z,66.75
2023-05-23T08:12:01.168Z,64.17
2023-05-23T08:14:38.728Z,63.54
2023-05-23T08:17:44.907Z,62.68
2023-05-23T08:20:13.722Z,57.82
2023-05-23T08:22:42.192Z,60.23
2023-05-23T08:25:13.427Z,59.12
2023-05-23T08:27:42.290Z,60.28
2023-05-23T08:30:34.102Z,56.33
2023-05-23T08:33:04.906Z,57.41
2023-05-23T08:35:36.485Z,54.43
2023-05-23T08:38:09.058Z,53.83
2023-05-23T08:40:44.771Z,54.63
2023-05-23T08:43:15.855Z,52.14
2023-05-23T08:45:44.782Z,52.46
2023-05-23T08:48:15.305Z,50.73
2023-05-23T08:50:48.764Z,50.75
2023-05-23T08:53:21.037Z,50.93
2023-05-23T08:55:58.849Z,48.74
2023-05-23T08:58:34.490Z,47.92
2023-05-23T09:01:03.754Z,50.14
2023-05-23T09:03:33.289Z,50.30
2023-05-23T09:06:30.998Z,48.17
2023-05-23T09:08:59.998Z,49.64
2023-05-23T09:11:29.722Z,47.61
2023-05-23T09:13:59.088Z,44.57
2023-05-23T09:16:34.120Z,45.20
2023-05-23T09:19:12.680Z,48.13
2023-05-23T09:21:44.976Z,42.82
2023-05-23T09:24:18.514Z,43.53
2023-05-23T09:26:50.035Z,44.48
2023-05-23T09:29:21.954Z,43.27
2023-05-23T09:31:50.260Z,45.30
2023-05-23T09:34:18.387Z,44.12
2023-05-23T09:36:48.681Z,41.58
2023-05-23T09:39:16.961Z,39.23
2023-05-23T09:41:45.280Z,37.76
2023-05-23T09:44:24.777Z,37.14
2023-05-23T09:46:54.089Z,38.60
2023-05-23T09:49:23.123Z,37.94
2023-05-23T09:51:59.052Z,38.17
2023-05-23T09:54:27.287Z,41.29
2023-05-23T09:56:57.759Z,38.22
2023-05-23T09:59:30.691Z,36.61
2023-05-23T10:02:01.959Z,38.04
2023-05-23T10:04:36.245Z,37.69
2023-05-23T10:07:11.602Z,35.92
2023-05-23T10:09:43.100Z,36.28
2023-05-23T10:12:43.441Z,35.92
2023-05-23T10:15:16.856Z,36.83
2023-05-23T10:18:09.143Z,36.59
2023-05-23T10:20:37.829Z,36.96
2023-05-23T10:23:06.968Z,39.33
2023-05-23T10:25:37.265Z,39.18
2023-05-23T10:28:06.802Z,39.81
2023-05-23T10:30:36.651Z,38.66
2023-05-23T10:33:06.647Z,38.97
2023-05-23T10:35:43.892Z,39.84
2023-05-23T10:38:23.092Z,39.03
2023-05-23T10:40:58.259Z,36.56
2023-05-23T10:43:30.781Z,36.41
2023-05-23T10:46:01.041Z,35.22
2023-05-23T10:48:35.580Z,33.99
2023-05-23T10:51:06.180Z,33.17
2023-05-23T10:53:37.189Z,32.59
2023-05-23T10:56:09.371Z,33.71
2023-05-23T10:58:39.766Z,34.67
2023-05-23T11:01:10.586Z,34.83
2023-05-23T11:03:54.023Z,35.88
2023-05-23T11:06:32.449Z,36.14
2023-05-23T11:09:07.648Z,41.08
2023-05-23T11:11:57.965Z,45.13
2023-05-23T11:14:34.357Z,55.01
2023-05-23T11:17:18.200Z,55.33
2023-05-23T11:20:00.982Z,61.82
2023-05-23T11:22:30.891Z,66.37
2023-05-23T11:25:00.107Z,65.99
2023-05-23T11:27:29.618Z,63.85
2023-05-23T11:30:03.774Z,65.30
2023-05-23T11:32:33.914Z,69.86
2023-05-23T11:35:02.983Z,67.15
2023-05-23T11:37:31.724Z,69.15
2023-05-23T11:40:02.197Z,67.58
2023-05-23T11:42:30.467Z,60.67
2023-05-23T11:44:58.652Z,53.52
2023-05-23T11:47:26.900Z,54.11
2023-05-23T11:49:56.528Z,52.47
2023-05-23T11:52:24.721Z,59.92
2023-05-23T11:54:55.019Z,55.43
2023-05-23T11:57:23.825Z,62.39
2023-05-23T11:59:53.161Z,65.29
2023-05-23T12:02:23.002Z,68.41
2023-05-23T12:04:51.406Z,69.14
2023-05-23T12:07:22.448Z,71.80
2023-05-23T12:09:50.653Z,72.31
2023-05-23T12:12:20.627Z,73.78
2023-05-23T12:14:48.824Z,76.75
2023-05-23T12:17:17.183Z,84.93
2023-05-23T12:19:47.905Z,100.00
2023-05-23T12:22:16.262Z,100.00
2023-05-23T12:24:48.866Z,100.00
2023-05-23T12:27:18.711Z,100.00
2023-05-23T12:29:52.742Z,100.00
2023-05-23T12:32:20.943Z,100.00
2023-05-23T12:34:50.944Z,100.00
2023-05-23T12:37:20.443Z,100.00
2023-05-23T12:40:00.175Z,100.00
2023-05-23T12:42:30.573Z,100.00
2023-05-23T12:44:59.403Z,100.00
2023-05-23T12:47:27.665Z,100.00
2023-05-23T12:49:55.986Z,100.00
2023-05-23T12:52:24.697Z,100.00
2023-05-23T12:54:53.325Z,100.00
2023-05-23T12:57:22.821Z,100.00
2023-05-23T12:59:51.151Z,100.00
2023-05-23T13:02:19.889Z,100.00
2023-05-23T13:04:48.125Z,100.00
2023-05-23T13:07:16.242Z,100.00
2023-05-23T13:09:44.420Z,100.00
2023-05-23T13:12:13.846Z,100.00
2023-05-23T13:14:43.734Z,100.00
2023-05-23T13:17:12.662Z,100.00
2023-05-23T13:19:41.200Z,100.00
2023-05-23T13:22:10.646Z,100.00
2023-05-23T13:24:39.010Z,100.00
2023-05-23T13:27:08.180Z,100.00
2023-05-23T13:29:36.383Z,100.00
2023-05-23T13:32:06.496Z,100.00
2023-05-23T13:34:37.470Z,100.00
2023-05-23T13:37:06.214Z,100.00
2023-05-23T13:39:34.557Z,100.00
2023-05-23T13:42:02.822Z,100.00
2023-05-23T13:44:31.633Z,100.00
2023-05-23T13:47:12.856Z,100.00
2023-05-23T13:49:46.186Z,100.00
2023-05-23T13:52:14.652Z,100.00
2023-05-23T13:54:43.557Z,100.00
2023-05-23T13:57:12.032Z,100.00
2023-05-23T13:59:40.230Z,100.00
2023-05-23T14:02:09.159Z,100.00
2023-05-23T14:04:37.477Z,100.00
2023-05-23T14:07:07.061Z,100.00
2023-05-23T14:09:35.282Z,100.00
2023-05-23T14:12:03.642Z,100.00
2023-05-23T14:14:31.741Z,100.00
2023-05-23T14:16:59.904Z,100.00
2023-05-23T14:19:28.092Z,100.00
2023-05-23T14:21:56.301Z,100.00
2023-05-23T14:24:25.922Z,100.00
2023-05-23T14:26:54.082Z,100.00
2023-05-23T14:29:22.362Z,100.00
2023-05-23T14:31:50.546Z,100.00
2023-05-23T14:34:18.922Z,100.00
2023-05-23T14:36:47.202Z,100.00
2023-05-23T14:39:15.927Z,100.00
2023-05-23T14:41:46.941Z,100.00
2023-05-23T14:44:15.103Z,100.00
2023-05-23T14:46:48.500Z,100.00
2023-05-23T14:49:16.849Z,100.00
2023-05-23T14:51:50.324Z,100.00
2023-05-23T14:54:19.938Z,100.00
2023-05-23T14:56:51.301Z,100.00
2023-05-23T14:59:21.931Z,100.00
2023-05-23T15:01:50.452Z,100.00
2023-05-23T15:04:18.753Z,100.00
2023-05-23T15:06:47.437Z,100.00
2023-05-23T15:09:15.663Z,100.00
2023-05-23T15:11:45.328Z,100.00
2023-05-23T15:14:14.835Z,100.00
2023-05-23T15:16:44.652Z,100.00
2023-05-23T15:19:13.089Z,100.00
2023-05-23T15:21:49.977Z,100.00
2023-05-23T15:24:19.570Z,100.00
2023-05-23T15:26:49.021Z,100.00
2023-05-23T15:29:18.931Z,100.00
2023-05-23T15:31:47.220Z,100.00
2023-05-23T15:34:15.395Z,100.00
2023-05-23T15:36:43.579Z,100.00
2023-05-23T15:39:12.783Z,100.00
2023-05-23T15:41:41.620Z,100.00
2023-05-23T15:44:10.572Z,100.00
2023-05-23T15:46:41.061Z,100.00
2023-05-23T15:49:24.439Z,100.00
2023-05-23T15:51:55.409Z,100.00
2023-05-23T15:54:23.839Z,100.00
2023-05-23T15:56:51.951Z,100.00
2023-05-23T15:59:20.146Z,100.00
2023-05-23T16:01:49.732Z,100.00
2023-05-23T16:04:18.029Z,100.00
2023-05-23T16:06:46.342Z,100.00
2023-05-23T16:09:14.594Z,100.00
2023-05-23T16:11:42.957Z,100.00
2023-05-23T16:14:11.085Z,100.00
2023-05-23T16:16:39.331Z,100.00
2023-05-23T16:19:09.007Z,100.00
2023-05-23T16:21:37.211Z,100.00
2023-05-23T16:24:06.194Z,100.00
2023-05-23T16:26:34.365Z,100.00
2023-05-23T16:29:02.573Z,100.00
2023-05-23T16:31:31.599Z,100.00
2023-05-23T16:34:00.155Z,100.00
2023-05-23T16:36:29.795Z,100.00
2023-05-23T16:38:58.119Z,100.00
2023-05-23T16:41:26.457Z,100.00
2023-05-23T16:43:54.534Z,100.00
2023-05-23T16:46:23.335Z,100.00
2023-05-23T16:48:51.481Z,100.00
2023-05-23T16:51:19.645Z,100.00
2023-05-23T16:53:49.328Z,100.00
2023-05-23T16:56:17.458Z,100.00
2023-05-23T16:58:45.680Z,100.00
2023-05-23T17:01:14.091Z,100.00
2023-05-23T17:03:42.441Z,100.00
2023-05-23T17:06:10.848Z,100.00
2023-05-23T17:08:39.075Z,100.00
2023-05-23T17:11:08.710Z,100.00
2023-05-23T17:13:36.804Z,100.00
2023-05-23T17:16:05.604Z,100.00
2023-05-23T17:18:33.900Z,100.00
2023-05-23T17:21:02.219Z,100.00
2023-05-23T17:23:30.450Z,100.00
2023-05-23T17:25:58.567Z,100.00
2023-05-23T17:28:28.103Z,100.00
2023-05-23T17:30:56.241Z,100.00
2023-05-23T17:33:24.475Z,100.00
2023-05-23T17:35:52.688Z,100.00
2023-05-23T17:38:20.852Z,100.00
2023-05-23T17:40:48.997Z,100.00
2023-05-23T17:43:17.298Z,100.00
2023-05-23T17:45:46.995Z,100.00
2023-05-23T17:48:16.298Z,100.00
2023-05-23T17:50:45.990Z,100.00
2023-05-23T17:53:15.167Z,100.00
2023-05-23T17:55:43.287Z,100.00
2023-05-23T17:58:11.421Z,100.00
2023-05-23T18:00:39.705Z,100.00
2023-05-23T18:03:09.590Z,100.00
2023-05-23T18:05:37.774Z,100.00
2023-05-23T18:08:06.783Z,100.00
2023-05-23T18:10:35.028Z,100.00
2023-05-23T18:13:03.197Z,100.00
2023-05-23T18:15:31.632Z,100.00
2023-05-23T18:17:59.853Z,100.00
2023-05-23T18:20:29.547Z,100.00
2023-05-23T18:22:57.704Z,100.00
2023-05-23T18:25:28.216Z,100.00
2023-05-23T18:27:56.649Z,100.00
2023-05-23T18:30:25.176Z,100.00
2023-05-23T18:32:53.455Z,100.00
2023-05-23T18:35:22.732Z,100.00
2023-05-23T18:37:52.992Z,100.00
2023-05-23T18:40:21.864Z,100.00
2023-05-23T18:42:50.386Z,100.00
2023-05-23T18:45:18.946Z,100.00
2023-05-23T18:47:47.798Z,100.00
2023-05-23T18:50:16.135Z,100.00
2023-05-23T18:52:44.708Z,100.00
2023-05-23T18:55:14.188Z,100.00
2023-05-23T18:57:42.378Z,100.00
2023-05-23T19:00:11.653Z,100.00
2023-05-23T19:02:44.319Z,100.00
2023-05-23T19:05:13.082Z,100.00
2023-05-23T19:07:41.549Z,100.00
2023-05-23T19:10:10.524Z,100.00
2023-05-23T19:12:40.657Z,100.00
2023-05-23T19:15:11.441Z,100.00
2023-05-23T19:17:39.969Z,100.00
2023-05-23T19:20:10.045Z,100.00
2023-05-23T19:22:50.189Z,100.00
2023-05-23T19:25:19.068Z,100.00
2023-05-23T19:27:48.703Z,100.00
2023-05-23T19:30:17.020Z,100.00
2023-05-23T19:32:45.342Z,100.00
2023-05-23T19:35:16.578Z,100.00
2023-05-23T19:37:45.274Z,100.00
2023-05-23T19:40:14.176Z,100.00
2023-05-23T19:42:42.353Z,100.00
2023-05-23T19:45:13.621Z,100.00
2023-05-23T19:47:42.054Z,100.00
2023-05-23T19:50:12.693Z,100.00
2023-05-23T19:52:41.249Z,100.00
2023-05-23T19:55:10.570Z,100.00
2023-05-23T19:57:38.672Z,100.00
2023-05-23T20:00:09.935Z,100.00
2023-05-23T20:02:39.697Z,100.00
2023-05-23T20:05:09.247Z,100.00
2023-05-23T20:07:37.757Z,100.00
2023-05-23T20:10:07.498Z,100.00
2023-05-23T20:12:35.836Z,100.00
2023-05-23T20:15:05.237Z,100.00
2023-05-23T20:17:33.577Z,100.00
2023-05-23T20:20:04.266Z,100.00
2023-05-23T20:22:32.387Z,100.00
2023-05-23T20:25:00.563Z,100.00
2023-05-23T20:27:29.011Z,100.00
2023-05-23T20:29:57.239Z,100.00
2023-05-23T20:32:25.585Z,100.00
2023-05-23T20:34:54.084Z,100.00
2023-05-23T20:37:23.849Z,100.00
2023-05-23T20:39:52.560Z,100.00
2023-05-23T20:42:20.869Z,100.00
2023-05-23T20:44:49.293Z,100.00
2023-05-23T20:47:17.826Z,100.00
2023-05-23T20:49:47.776Z,100.00
2023-05-23T20:52:16.018Z,100.00
2023-05-23T20:54:48.207Z,100.00
2023-05-23T20:57:16.433Z,100.00
2023-05-23T20:59:44.825Z,100.00
2023-05-23T21:02:13.918Z,100.00
2023-05-23T21:04:42.169Z,100.00
2023-05-23T21:07:10.336Z,100.00
2023-05-23T21:09:38.568Z,100.00
2023-05-23T21:12:11.173Z,100.00
2023-05-23T21:14:39.277Z,100.00
2023-05-23T21:17:07.552Z,100.00
2023-05-23T21:19:35.828Z,100.00
2023-05-23T21:22:04.229Z,100.00
2023-05-23T21:24:32.335Z,100.00
2023-05-23T21:27:01.783Z,100.00
2023-05-23T21:29:31.370Z,100.00
2023-05-23T21:31:59.578Z,100.00
2023-05-23T21:34:27.805Z,100.00
2023-05-23T21:36:55.941Z,100.00
2023-05-23T21:39:24.130Z,100.00
2023-05-23T21:41:52.229Z,100.00
2023-05-23T21:44:20.458Z,100.00
2023-05-23T21:46:50.601Z,100.00
2023-05-23T21:49:18.845Z,100.00
2023-05-23T21:51:46.974Z,100.00
2023-05-23T21:54:15.123Z,100.00
2023-05-23T21:56:43.303Z,100.00
2023-05-23T21:59:11.585Z,100.00
2023-05-23T22:01:39.766Z,100.00
2023-05-23T22:04:09.487Z,100.00
2023-05-23T22:06:38.663Z,100.00
2023-05-23T22:09:10.219Z,100.00
2023-05-23T22:11:38.372Z,100.00
2023-05-23T22:14:06.664Z,100.00
2023-05-23T22:16:39.154Z,100.00
2023-05-23T22:19:08.269Z,100.00
2023-05-23T22:21:37.986Z,100.00
2023-05-23T22:24:06.712Z,100.00
2023-05-23T22:26:34.794Z,100.00
2023-05-23T22:29:03.003Z,100.00
2023-05-23T22:31:31.195Z,100.00
2023-05-23T22:33:59.416Z,100.00
2023-05-23T22:36:27.525Z,100.00
2023-05-23T22:38:57.336Z,100.00
2023-05-23T22:41:25.471Z,100.00
2023-05-23T22:43:53.618Z,100.00
2023-05-23T22:46:21.863Z,100.00
2023-05-23T22:48:52.618Z,100.00
2023-05-23T22:51:20.917Z,100.00
2023-05-23T22:53:49.214Z,100.00
2023-05-23T22:56:18.898Z,100.00
2023-05-23T22:58:47.031Z,100.00
2023-05-23T23:01:15.159Z,100.00
2023-05-23T23:03:43.378Z,100.00
2023-05-23T23:06:12.371Z,100.00
2023-05-23T23:08:40.541Z,100.00
2023-05-23T23:11:08.692Z,100.00
2023-05-23T23:13:38.164Z,100.00
2023-05-23T23:16:08.703Z,100.00
2023-05-23T23:18:37.176Z,100.00
2023-05-23T23:21:05.998Z,100.00
2023-05-23T23:23:34.126Z,100.00
2023-05-23T23:26:02.298Z,100.00
2023-05-23T23:28:30.406Z,100.00
2023-05-23T23:31:00.010Z,100.00
2023-05-23T23:33:28.276Z,100.00
2023-05-23T23:35:56.554Z,100.00
2023-05-23T23:38:24.721Z,100.00
2023-05-23T23:40:53.542Z,100.00
2023-05-23T23:43:22.024Z,100.00
2023-05-23T23:45:50.178Z,100.00
2023-05-23T23:48:19.789Z,100.00
2023-05-23T23:50:47.864Z,100.00
2023-05-23T23:53:17.018Z,100.00
2023-05-23T23:55:45.187Z,100.00
2023-05-23T23:58:13.329Z,100.00
